createdAt,value
2019-06-07T00:01:21.758Z,7.25
2019-06-07T00:06:25.914Z,7.17
2019-06-07T00:11:29.194Z,7.33
2019-06-07T00:16:32.192Z,7.40
2019-06-07T00:22:13.553Z,7.70
2019-06-07T00:26:57.284Z,7.72
2019-06-07T00:31:45.329Z,7.75
2019-06-07T00:36:48.813Z,8.08
2019-06-07T00:41:52.072Z,7.30
2019-06-07T00:46:55.769Z,8.65
2019-06-07T00:51:58.906Z,7.83
2019-06-07T00:57:01.901Z,9.03
2019-06-07T01:02:05.553Z,7.92
2019-06-07T01:07:08.828Z,8.18
2019-06-07T01:12:14.115Z,8.45
2019-06-07T01:17:40.048Z,9.67
2019-06-07T01:22:30.479Z,8.80
2019-06-07T01:27:33.616Z,9.33
2019-06-07T01:32:36.727Z,9.50
2019-06-07T01:37:39.809Z,9.28
2019-06-07T01:42:42.858Z,8.13
2019-06-07T01:47:46.089Z,8.80
2019-06-07T01:52:49.279Z,9.48
2019-06-07T01:57:52.428Z,9.83
2019-06-07T02:02:55.606Z,9.48
2019-06-07T02:07:59.024Z,9.10
2019-06-07T02:13:02.032Z,8.33
2019-06-07T02:18:04.979Z,8.70
2019-06-07T02:23:08.230Z,9.23
2019-06-07T02:28:27.098Z,8.60
2019-06-07T02:33:16.079Z,7.92
2019-06-07T02:38:19.041Z,8.00
2019-06-07T02:43:22.191Z,8.80
2019-06-07T02:48:28.024Z,8.70
2019-06-07T02:53:33.678Z,8.87
2019-06-07T02:58:41.514Z,9.05
2019-06-07T03:03:40.766Z,7.87
2019-06-07T03:08:46.440Z,7.80
2019-06-07T03:13:50.361Z,7.93
2019-06-07T03:19:01.043Z,9.48
2019-06-07T03:24:04.452Z,8.23
2019-06-07T03:29:07.460Z,7.67
2019-06-07T03:34:10.436Z,7.80
2019-06-07T03:39:13.549Z,7.45
2019-06-07T03:44:16.540Z,7.00
2019-06-07T03:49:19.579Z,7.30
2019-06-07T03:54:22.675Z,6.53
2019-06-07T03:59:25.636Z,6.37
2019-06-07T04:04:29.782Z,7.90
2019-06-07T04:09:35.707Z,7.28
2019-06-07T04:15:10.156Z,7.87
2019-06-07T04:20:13.418Z,7.30
2019-06-07T04:25:16.495Z,7.03
2019-06-07T04:30:42.347Z,6.53
2019-06-07T04:35:45.489Z,6.97
2019-06-07T04:40:50.438Z,7.65
2019-06-07T04:45:55.746Z,7.92
2019-06-07T04:51:02.505Z,9.70
2019-06-07T04:56:05.586Z,10.60
2019-06-07T05:01:26.424Z,9.85
2019-06-07T05:06:15.458Z,10.30
2019-06-07T05:11:18.451Z,10.45
2019-06-07T05:16:21.409Z,9.35
2019-06-07T05:21:24.358Z,10.43
2019-06-07T05:26:27.732Z,10.20
2019-06-07T05:31:31.788Z,8.93
2019-06-07T05:36:37.581Z,9.05
2019-06-07T05:41:43.785Z,8.30
2019-06-07T05:46:47.187Z,8.97
2019-06-07T05:51:50.597Z,8.95
2019-06-07T05:56:53.566Z,7.93
2019-06-07T06:02:03.207Z,6.95
2019-06-07T06:07:01.620Z,7.30
2019-06-07T06:12:04.824Z,7.20
2019-06-07T06:17:07.985Z,7.58
2019-06-07T06:22:11.094Z,8.10
2019-06-07T06:27:55.169Z,7.95
2019-06-07T06:37:24.072Z,6.95
2019-06-07T06:42:27.321Z,6.05
2019-06-07T06:47:30.406Z,6.00
2019-06-07T06:52:33.662Z,5.35
2019-06-07T06:57:36.948Z,6.62
2019-06-07T07:03:30.192Z,6.25
2019-06-07T07:07:47.932Z,6.27
2019-06-07T07:12:52.494Z,6.10
2019-06-07T07:18:07.833Z,6.82
2019-06-07T07:23:01.200Z,5.92
2019-06-07T07:28:05.162Z,7.00
2019-06-07T07:33:08.239Z,7.10
2019-06-07T07:38:11.409Z,7.37
2019-06-07T07:43:16.087Z,6.75
2019-06-07T07:48:19.267Z,7.72
2019-06-07T07:53:22.419Z,8.20
2019-06-07T07:58:25.672Z,8.63
2019-06-07T08:03:28.880Z,7.95
2019-06-07T08:08:34.553Z,8.08
2019-06-07T08:13:38.995Z,7.60
2019-06-07T08:18:42.222Z,7.87
2019-06-07T08:23:47.404Z,7.80
2019-06-07T08:28:53.091Z,8.77
2019-06-07T08:33:57.049Z,7.97
2019-06-07T08:39:06.784Z,7.80
2019-06-07T08:44:22.724Z,8.57
2019-06-07T08:49:10.461Z,8.85
2019-06-07T08:54:22.170Z,8.03
2019-06-07T08:59:19.368Z,8.00
2019-06-07T09:04:22.391Z,7.62
2019-06-07T09:09:25.743Z,8.00
2019-06-07T09:14:28.709Z,7.80
2019-06-07T09:19:31.767Z,6.78
2019-06-07T09:24:34.852Z,6.90
2019-06-07T09:29:38.465Z,7.53
2019-06-07T09:34:41.575Z,6.60
2019-06-07T09:39:45.258Z,8.50
2019-06-07T09:44:48.352Z,8.10
2019-06-07T09:49:51.871Z,6.72
2019-06-07T09:55:09.229Z,7.20
2019-06-07T10:00:21.346Z,7.37
2019-06-07T10:05:12.173Z,6.87
2019-06-07T10:15:17.138Z,6.72
2019-06-07T10:20:20.586Z,7.67
2019-06-07T10:25:23.654Z,8.08
2019-06-07T10:30:26.762Z,8.43
2019-06-07T10:35:29.830Z,7.22
2019-06-07T10:40:32.804Z,6.53
2019-06-07T10:45:35.913Z,7.70
2019-06-07T10:50:39.151Z,7.03
2019-06-07T10:55:42.632Z,6.03
2019-06-07T11:00:45.747Z,5.72
2019-06-07T11:05:49.957Z,5.22
2019-06-07T11:10:53.179Z,6.28
2019-06-07T11:15:56.326Z,6.53
2019-06-07T11:20:59.440Z,6.62
2019-06-07T11:26:02.547Z,6.67
2019-06-07T11:31:06.322Z,6.20
2019-06-07T11:36:10.678Z,5.72
2019-06-07T11:41:13.854Z,6.50
2019-06-07T11:46:18.316Z,8.00
2019-06-07T11:51:21.548Z,6.00
2019-06-07T11:56:24.631Z,5.97
2019-06-07T12:01:28.060Z,5.05
2019-06-07T12:06:31.160Z,4.92
2019-06-07T12:11:34.201Z,6.03
2019-06-07T12:16:37.331Z,5.47
2019-06-07T12:21:42.147Z,6.55
2019-06-07T12:26:45.215Z,5.33
2019-06-07T12:31:48.304Z,5.62
2019-06-07T12:36:51.792Z,5.30
2019-06-07T12:41:55.017Z,4.85
2019-06-07T12:46:58.016Z,4.75
2019-06-07T12:52:01.200Z,4.70
2019-06-07T12:57:04.750Z,5.83
2019-06-07T13:02:08.196Z,5.20
2019-06-07T13:07:11.278Z,5.70
2019-06-07T13:12:15.455Z,5.50
2019-06-07T13:17:20.255Z,5.60
2019-06-07T13:22:24.390Z,5.60
2019-06-07T13:27:32.798Z,6.08
2019-06-07T13:32:32.750Z,5.78
2019-06-07T13:37:37.568Z,6.20
2019-06-07T13:42:40.764Z,5.20
2019-06-07T13:47:46.101Z,4.93
2019-06-07T13:57:51.770Z,5.37
2019-06-07T14:02:55.055Z,5.47
2019-06-07T14:07:58.128Z,5.30
2019-06-07T14:13:01.250Z,5.67
2019-06-07T14:18:05.580Z,5.27
2019-06-07T14:23:08.801Z,6.08
2019-06-07T14:28:12.110Z,5.78
2019-06-07T14:33:15.220Z,5.58
2019-06-07T14:38:18.506Z,5.80
2019-06-07T14:43:23.142Z,6.26
2019-06-07T14:48:26.411Z,6.20
2019-06-07T14:53:30.890Z,5.47
2019-06-07T14:58:40.071Z,6.23
2019-06-07T15:03:39.313Z,6.20
2019-06-07T15:08:42.587Z,5.70
2019-06-07T15:13:45.677Z,6.17
2019-06-07T15:18:48.814Z,5.30
2019-06-07T15:23:51.834Z,5.90
2019-06-07T15:28:54.928Z,6.00
2019-06-07T15:33:58.028Z,4.95
2019-06-07T15:39:01.422Z,5.58
2019-06-07T15:44:04.781Z,5.65
2019-06-07T15:49:07.944Z,5.67
2019-06-07T15:54:11.150Z,6.92
2019-06-07T15:59:14.262Z,6.78
2019-06-07T16:04:17.371Z,6.42
2019-06-07T16:09:20.575Z,8.68
2019-06-07T16:14:26.242Z,7.30
2019-06-07T16:19:29.230Z,8.55
2019-06-07T16:24:33.579Z,8.50
2019-06-07T16:29:36.843Z,8.70
2019-06-07T16:34:41.761Z,8.28
2019-06-07T16:44:48.946Z,7.10
2019-06-07T16:49:52.176Z,7.10
2019-06-07T16:54:55.325Z,7.40
2019-06-07T17:00:06.737Z,8.08
2019-06-07T17:05:10.256Z,14.63
2019-06-07T17:10:16.182Z,12.18
2019-06-07T17:15:19.735Z,9.23
2019-06-07T17:20:23.327Z,8.20
2019-06-07T17:25:26.364Z,7.28
2019-06-07T17:30:29.586Z,8.13
2019-06-07T17:35:32.784Z,8.00
2019-06-07T17:40:35.989Z,7.95
2019-06-07T17:45:39.359Z,8.00
2019-06-07T17:50:43.702Z,8.48
2019-06-07T17:55:48.176Z,8.63
2019-06-07T18:00:53.065Z,7.80
2019-06-07T18:05:59.034Z,9.10
2019-06-07T18:11:02.222Z,8.13
2019-06-07T18:16:08.479Z,8.55
2019-06-07T18:21:11.715Z,8.10
2019-06-07T18:26:15.976Z,8.68
2019-06-07T18:31:19.105Z,9.08
2019-06-07T18:36:22.455Z,8.35
2019-06-07T18:41:25.931Z,9.95
2019-06-07T18:46:29.060Z,9.40
2019-06-07T18:51:32.275Z,8.40
2019-06-07T18:56:35.415Z,9.17
2019-06-07T19:01:38.820Z,9.25
2019-06-07T19:06:41.886Z,7.97
2019-06-07T19:11:44.955Z,10.25
2019-06-07T19:16:49.337Z,11.12
2019-06-07T19:21:53.892Z,9.87
2019-06-07T19:26:58.635Z,10.20
2019-06-07T19:32:01.997Z,10.57
2019-06-07T19:37:05.037Z,11.40
2019-06-07T19:42:08.220Z,12.37
2019-06-07T19:47:11.514Z,12.67
2019-06-07T19:52:15.129Z,13.85
2019-06-07T19:57:18.353Z,14.40
2019-06-07T20:02:21.551Z,13.50
2019-06-07T20:07:24.882Z,14.30
2019-06-07T20:12:30.271Z,13.43
2019-06-07T20:22:36.079Z,13.22
2019-06-07T20:27:39.348Z,12.95
2019-06-07T20:32:44.342Z,13.98
2019-06-07T20:37:47.497Z,15.00
2019-06-07T20:42:57.413Z,14.63
2019-06-07T20:48:01.985Z,13.67
2019-06-07T20:53:07.039Z,13.60
2019-06-07T20:58:10.443Z,14.50
2019-06-07T21:03:15.645Z,13.78
2019-06-07T21:08:18.764Z,13.73
2019-06-07T21:13:22.035Z,15.38
2019-06-07T21:18:25.187Z,14.30
2019-06-07T21:23:28.508Z,14.90
2019-06-07T21:28:33.648Z,13.70
2019-06-07T21:33:38.186Z,15.40
2019-06-07T21:38:41.348Z,14.65
2019-06-07T21:43:44.446Z,14.57
2019-06-07T21:48:47.596Z,15.03
2019-06-07T21:53:53.881Z,14.75
2019-06-07T21:58:57.298Z,15.32
2019-06-07T22:04:03.478Z,15.10
2019-06-07T22:09:09.944Z,14.98
2019-06-07T22:14:14.522Z,15.85
2019-06-07T22:19:17.959Z,15.43
2019-06-07T22:24:21.084Z,16.40
2019-06-07T22:29:24.255Z,16.32
2019-06-07T22:34:27.498Z,17.62
2019-06-07T22:39:30.738Z,16.62
2019-06-07T22:44:33.822Z,16.93
2019-06-07T22:49:36.972Z,17.32
2019-06-07T22:54:40.205Z,17.33
2019-06-07T22:59:43.340Z,17.00
2019-06-07T23:04:46.600Z,17.30
2019-06-07T23:09:49.857Z,16.65
2019-06-07T23:14:52.990Z,17.05
2019-06-07T23:19:56.100Z,16.37
2019-06-07T23:25:02.865Z,16.75
2019-06-07T23:30:10.588Z,16.67
2019-06-07T23:35:14.817Z,13.93
2019-06-07T23:40:19.450Z,15.63
2019-06-07T23:45:22.791Z,14.90
2019-06-07T23:50:25.928Z,14.45
2019-06-07T23:55:30.439Z,13.97
